Time;durP1;ratioP1;P1;durP2;ratioP2;P2;SDS_P1;SDS_P2;PMS_P1;PMS_P2;Temp;Humidity;BMP_temperature;BMP_pressure;BME280_temperature;BME280_humidity;BME280_pressure;Samples;Min_cycle;Max_cycle;Signal;HPM_P1;HPM_P2
2021/04/25 00:01:27;;;;;;;24.33;22.50;;;;;;;;;;5095708;28;20209;-79
2021/04/25 00:03:54;;;;;;;25.98;23.77;;;;;;;;;;5095065;28;20195;-80
2021/04/25 00:06:21;;;;;;;23.70;21.73;;;;;;;;;;5095275;28;20580;-79
2021/04/25 00:08:48;;;;;;;24.40;22.70;;;;;;;;;;5094444;28;20223;-80
2021/04/25 00:11:15;;;;;;;24.20;22.20;;;;;;;;;;5095287;28;20187;-79
2021/04/25 00:13:43;;;;;;;23.20;21.65;;;;;;;;;;5093803;28;20204;-79
2021/04/25 00:16:11;;;;;;;23.85;21.95;;;;;;;;;;5094852;28;20658;-80
2021/04/25 00:18:39;;;;;;;24.02;22.55;;;;;;;;;;5094755;28;20192;-80
2021/04/25 00:21:06;;;;;;;24.25;22.63;;;;;;;;;;5093596;28;20222;-79
2021/04/25 00:23:32;;;;;;;23.80;22.25;;;;;;;;;;5094740;28;20566;-80
2021/04/25 00:25:59;;;;;;;23.95;22.25;;;;;;;;;;5094879;28;20212;-80
2021/04/25 00:28:26;;;;;;;25.25;23.05;;;;;;;;;;5093671;28;20200;-80
2021/04/25 00:30:53;;;;;;;24.90;23.08;;;;;;;;;;5093348;28;20635;-80
2021/04/25 00:33:21;;;;;;;24.13;22.20;;;;;;;;;;5094542;28;20616;-80
2021/04/25 00:35:48;;;;;;;23.75;22.10;;;;;;;;;;5094629;28;20204;-80
2021/04/25 00:38:15;;;;;;;23.30;21.67;;;;;;;;;;5094386;28;20197;-80
2021/04/25 00:40:42;;;;;;;23.92;22.30;;;;;;;;;;5094711;28;20638;-79
2021/04/25 00:43:08;;;;;;;25.00;23.20;;;;;;;;;;5094606;28;20542;-80
2021/04/25 00:45:35;;;;;;;24.48;22.88;;;;;;;;;;5094514;28;20274;-79
2021/04/25 00:48:02;;;;;;;24.90;22.80;;;;;;;;;;5093069;28;20196;-79
2021/04/25 00:50:30;;;;;;;24.33;22.83;;;;;;;;;;5094592;28;20562;-79
2021/04/25 00:52:58;;;;;;;24.98;23.00;;;;;;;;;;5094533;28;20550;-80
2021/04/25 00:55:26;;;;;;;24.20;22.40;;;;;;;;;;5094438;28;20190;-79
2021/04/25 00:57:53;;;;;;;26.05;24.10;;;;;;;;;;5094008;28;20232;-79
2021/04/25 01:00:21;;;;;;;24.90;22.60;;;;;;;;;;5094416;28;20189;-79
2021/04/25 01:02:47;;;;;;;25.17;22.90;;;;;;;;;;5094284;28;20204;-80
2021/04/25 01:05:15;;;;;;;24.00;22.30;;;;;;;;;;5093829;28;20489;-79
2021/04/25 01:07:43;;;;;;;23.45;21.85;;;;;;;;;;5093975;28;20197;-79
2021/04/25 01:10:11;;;;;;;25.75;23.33;;;;;;;;;;5093961;28;20634;-79
2021/04/25 01:12:38;;;;;;;24.73;22.80;;;;;;;;;;5093949;28;20246;-79
2021/04/25 01:15:06;;;;;;;24.13;22.52;;;;;;;;;;5094176;28;20573;-79
2021/04/25 01:17:33;;;;;;;25.48;23.48;;;;;;;;;;5093742;28;20200;-79
2021/04/25 01:20:00;;;;;;;24.67;22.67;;;;;;;;;;5093414;28;20681;-79
2021/04/25 01:22:28;;;;;;;23.73;21.83;;;;;;;;;;5092641;28;20558;-79
2021/04/25 01:24:55;;;;;;;26.00;23.60;;;;;;;;;;5093595;28;20240;-79
2021/04/25 01:27:22;;;;;;;23.98;22.33;;;;;;;;;;5094072;28;20748;-79
2021/04/25 01:29:49;;;;;;;23.85;22.23;;;;;;;;;;5093976;28;20554;-79
2021/04/25 01:32:16;;;;;;;23.85;22.00;;;;;;;;;;5093842;28;20198;-79
2021/04/25 01:34:43;;;;;;;24.35;22.45;;;;;;;;;;5093823;28;20193;-79
2021/04/25 01:37:09;;;;;;;23.77;22.02;;;;;;;;;;5093743;28;20639;-79
2021/04/25 01:39:37;;;;;;;24.35;22.48;;;;;;;;;;5094050;28;20190;-79
2021/04/25 01:42:04;;;;;;;23.30;21.80;;;;;;;;;;5093681;28;20193;-79
2021/04/25 01:44:31;;;;;;;24.85;22.60;;;;;;;;;;5093908;28;20214;-79
2021/04/25 01:46:58;;;;;;;25.23;23.17;;;;;;;;;;5093979;28;20234;-79
2021/04/25 01:49:25;;;;;;;23.30;21.60;;;;;;;;;;5093747;28;20534;-79
2021/04/25 01:51:52;;;;;;;25.45;23.48;;;;;;;;;;5093600;28;20249;-79
2021/04/25 01:54:19;;;;;;;23.15;21.45;;;;;;;;;;5093810;28;20197;-79
2021/04/25 01:56:46;;;;;;;23.48;21.77;;;;;;;;;;5093687;28;20553;-79
2021/04/25 01:59:13;;;;;;;24.10;22.08;;;;;;;;;;5093634;28;20186;-79
2021/04/25 02:01:40;;;;;;;22.20;20.90;;;;;;;;;;5093505;28;20255;-79
2021/04/25 02:04:07;;;;;;;22.65;20.92;;;;;;;;;;5093651;28;20196;-79
2021/04/25 02:06:36;;;;;;;23.58;22.05;;;;;;;;;;5093669;28;20193;-81
2021/04/25 02:09:04;;;;;;;23.00;21.50;;;;;;;;;;5093764;28;20197;-81
2021/04/25 02:11:31;;;;;;;23.85;22.08;;;;;;;;;;5093709;28;20194;-79
2021/04/25 02:13:58;;;;;;;24.40;22.38;;;;;;;;;;5093676;28;20189;-79
2021/04/25 02:16:25;;;;;;;25.45;23.23;;;;;;;;;;5093636;28;20606;-79
2021/04/25 02:18:52;;;;;;;23.67;22.00;;;;;;;;;;5093606;28;20193;-79
2021/04/25 02:21:19;;;;;;;23.65;21.90;;;;;;;;;;5093612;28;20242;-81
2021/04/25 02:23:46;;;;;;;25.45;23.50;;;;;;;;;;5093071;28;20230;-79
2021/04/25 02:26:13;;;;;;;24.63;22.77;;;;;;;;;;5093113;28;20246;-79
2021/04/25 02:28:40;;;;;;;24.00;22.30;;;;;;;;;;5093195;28;20192;-80
2021/04/25 02:31:08;;;;;;;24.27;22.42;;;;;;;;;;5092910;28;20726;-79
2021/04/25 02:33:35;;;;;;;25.15;22.83;;;;;;;;;;5096860;28;20197;-79
2021/04/25 02:36:02;;;;;;;24.23;22.38;;;;;;;;;;5097080;28;20185;-79
2021/04/25 02:38:28;;;;;;;24.08;22.02;;;;;;;;;;5096679;28;20649;-79
2021/04/25 02:40:55;;;;;;;23.45;21.85;;;;;;;;;;5096265;28;20262;-79
2021/04/25 02:43:22;;;;;;;24.13;22.35;;;;;;;;;;5095368;28;20245;-79
2021/04/25 02:45:49;;;;;;;23.88;22.17;;;;;;;;;;5096634;28;20228;-79
2021/04/25 02:48:17;;;;;;;25.27;23.35;;;;;;;;;;5096555;28;20214;-79
2021/04/25 02:50:44;;;;;;;25.52;23.50;;;;;;;;;;5095846;28;20673;-79
2021/04/25 02:53:12;;;;;;;23.73;22.00;;;;;;;;;;5096879;28;20245;-79
2021/04/25 02:55:40;;;;;;;23.90;22.20;;;;;;;;;;5096199;28;20212;-79
2021/04/25 02:58:07;;;;;;;25.00;23.17;;;;;;;;;;5096410;28;20228;-79
2021/04/25 03:00:35;;;;;;;24.00;22.30;;;;;;;;;;5096695;28;20197;-79
2021/04/25 03:03:02;;;;;;;24.35;22.40;;;;;;;;;;5096105;28;20221;-79
2021/04/25 03:05:30;;;;;;;25.40;23.70;;;;;;;;;;5096356;28;20227;-79
2021/04/25 03:07:57;;;;;;;23.63;21.70;;;;;;;;;;5096451;28;20188;-79
2021/04/25 03:10:25;;;;;;;24.92;23.05;;;;;;;;;;5095076;28;20197;-79
2021/04/25 03:12:52;;;;;;;24.88;22.98;;;;;;;;;;5096048;28;20204;-79
2021/04/25 03:15:19;;;;;;;22.48;20.88;;;;;;;;;;5096325;28;20547;-79
2021/04/25 03:17:46;;;;;;;24.77;22.75;;;;;;;;;;5096312;28;20197;-79
2021/04/25 03:20:14;;;;;;;23.42;21.80;;;;;;;;;;5096156;28;20200;-80
2021/04/25 03:22:42;;;;;;;22.58;20.88;;;;;;;;;;5096389;28;20193;-79
2021/04/25 03:25:10;;;;;;;24.08;21.95;;;;;;;;;;5095909;28;20224;-79
2021/04/25 03:27:37;;;;;;;24.10;22.13;;;;;;;;;;5096063;28;20200;-79
2021/04/25 03:30:05;;;;;;;23.83;21.65;;;;;;;;;;5094649;28;20185;-79
2021/04/25 03:32:32;;;;;;;24.55;22.65;;;;;;;;;;5095636;28;20188;-79
2021/04/25 03:34:59;;;;;;;22.67;21.17;;;;;;;;;;5095918;28;20199;-79
2021/04/25 03:37:26;;;;;;;24.10;22.10;;;;;;;;;;5094457;28;20561;-79
2021/04/25 03:39:54;;;;;;;22.80;21.30;;;;;;;;;;5095423;28;20196;-79
2021/04/25 03:42:21;;;;;;;23.05;21.35;;;;;;;;;;5095453;28;20728;-79
2021/04/25 03:44:48;;;;;;;22.73;21.17;;;;;;;;;;5095677;28;20223;-79
2021/04/25 03:47:15;;;;;;;24.77;22.50;;;;;;;;;;5095648;28;20216;-79
2021/04/25 03:49:42;;;;;;;23.13;21.42;;;;;;;;;;5095392;28;20195;-79
2021/04/25 03:52:08;;;;;;;24.00;22.20;;;;;;;;;;5095565;28;20194;-79
2021/04/25 03:54:35;;;;;;;23.08;21.27;;;;;;;;;;5095366;28;20196;-79
2021/04/25 03:57:05;;;;;;;24.45;22.42;;;;;;;;;;5095013;28;20224;-79
2021/04/25 03:59:32;;;;;;;24.98;23.00;;;;;;;;;;5094098;28;20196;-79
2021/04/25 04:01:59;;;;;;;24.10;22.08;;;;;;;;;;5095325;28;20189;-79
2021/04/25 04:04:26;;;;;;;23.67;21.95;;;;;;;;;;5094097;28;20204;-79
2021/04/25 04:06:53;;;;;;;23.60;21.83;;;;;;;;;;5095351;28;20237;-79
2021/04/25 04:09:19;;;;;;;24.00;22.40;;;;;;;;;;5095303;28;20192;-81
2021/04/25 04:11:46;;;;;;;23.40;21.48;;;;;;;;;;5094891;28;20190;-78
2021/04/25 04:14:14;;;;;;;25.70;23.48;;;;;;;;;;5094827;28;20200;-79
2021/04/25 04:16:41;;;;;;;24.58;22.77;;;;;;;;;;5095086;28;20188;-79
2021/04/25 04:19:08;;;;;;;23.95;22.35;;;;;;;;;;5095110;28;20629;-79
2021/04/25 04:21:35;;;;;;;24.60;22.42;;;;;;;;;;5093823;28;20531;-79
2021/04/25 04:24:02;;;;;;;24.08;22.35;;;;;;;;;;5094688;28;20239;-79
2021/04/25 04:26:29;;;;;;;24.98;22.90;;;;;;;;;;5094557;28;20689;-79
2021/04/25 04:28:56;;;;;;;24.35;22.50;;;;;;;;;;5094820;28;20188;-77
2021/04/25 04:31:24;;;;;;;23.27;21.70;;;;;;;;;;5094467;28;20235;-77
2021/04/25 04:33:50;;;;;;;23.95;22.25;;;;;;;;;;5094684;28;20188;-77
2021/04/25 04:36:17;;;;;;;23.05;21.30;;;;;;;;;;5094656;28;20215;-79
2021/04/25 04:38:44;;;;;;;23.00;21.27;;;;;;;;;;5094767;28;20189;-79
2021/04/25 04:41:11;;;;;;;23.65;22.15;;;;;;;;;;5093531;28;20205;-77
2021/04/25 04:43:38;;;;;;;23.50;21.73;;;;;;;;;;5094251;28;20548;-76
2021/04/25 04:46:05;;;;;;;23.23;21.73;;;;;;;;;;5094063;28;20716;-77
2021/04/25 04:48:33;;;;;;;23.08;21.52;;;;;;;;;;5094633;28;20549;-79
2021/04/25 04:51:00;;;;;;;23.98;22.33;;;;;;;;;;5094585;28;20188;-79
2021/04/25 04:53:27;;;;;;;23.05;21.65;;;;;;;;;;5093953;28;20193;-79
2021/04/25 04:55:54;;;;;;;22.88;21.40;;;;;;;;;;5093876;28;20651;-77
2021/04/25 04:58:20;;;;;;;23.42;21.92;;;;;;;;;;5094050;28;20220;-77
2021/04/25 05:00:47;;;;;;;23.77;22.08;;;;;;;;;;5094071;28;20193;-79
2021/04/25 05:03:15;;;;;;;24.25;22.20;;;;;;;;;;5094115;28;20245;-79
2021/04/25 05:05:43;;;;;;;23.45;21.92;;;;;;;;;;5094241;28;20258;-79
2021/04/25 05:08:10;;;;;;;22.77;21.27;;;;;;;;;;5094564;28;20189;-76
2021/04/25 05:10:36;;;;;;;22.80;21.30;;;;;;;;;;5094155;28;20196;-76
2021/04/25 05:13:04;;;;;;;23.42;21.52;;;;;;;;;;5094119;28;20637;-77
2021/04/25 05:15:31;;;;;;;22.85;21.45;;;;;;;;;;5093439;28;20258;-76
2021/04/25 05:17:58;;;;;;;23.60;22.25;;;;;;;;;;5093662;28;20209;-76
2021/04/25 05:20:25;;;;;;;23.27;21.67;;;;;;;;;;5094067;28;20189;-77
2021/04/25 05:22:53;;;;;;;25.42;23.50;;;;;;;;;;5093727;28;20208;-77
2021/04/25 05:25:20;;;;;;;23.48;21.92;;;;;;;;;;5093838;28;20677;-77
2021/04/25 05:27:47;;;;;;;24.13;22.30;;;;;;;;;;5093922;28;20189;-76
2021/04/25 05:30:14;;;;;;;24.50;22.75;;;;;;;;;;5092725;28;20193;-76
2021/04/25 05:32:41;;;;;;;24.90;23.17;;;;;;;;;;5093749;28;20186;-76
2021/04/25 05:35:08;;;;;;;24.20;22.50;;;;;;;;;;5093550;28;20196;-77
2021/04/25 05:37:35;;;;;;;25.90;24.20;;;;;;;;;;5093468;28;20190;-76
2021/04/25 05:40:03;;;;;;;22.42;21.10;;;;;;;;;;5093855;28;20216;-77
2021/04/25 05:42:30;;;;;;;23.73;22.20;;;;;;;;;;5093902;28;20208;-76
2021/04/25 05:44:57;;;;;;;25.67;23.85;;;;;;;;;;5093967;28;20218;-76
2021/04/25 05:47:24;;;;;;;24.23;22.50;;;;;;;;;;5093695;28;20246;-77
2021/04/25 05:49:51;;;;;;;25.23;23.50;;;;;;;;;;5093771;28;20197;-77
2021/04/25 05:52:18;;;;;;;24.40;22.77;;;;;;;;;;5093732;28;20193;-77
2021/04/25 05:54:45;;;;;;;24.48;23.08;;;;;;;;;;5093425;28;20199;-77
2021/04/25 05:57:13;;;;;;;24.00;22.38;;;;;;;;;;5093241;28;20224;-77
2021/04/25 05:59:40;;;;;;;24.45;22.95;;;;;;;;;;5093780;28;20190;-77
2021/04/25 06:02:07;;;;;;;24.10;22.70;;;;;;;;;;5093261;28;20239;-77
2021/04/25 06:04:34;;;;;;;25.15;23.42;;;;;;;;;;5093639;28;20193;-77
2021/04/25 06:07:01;;;;;;;23.65;22.25;;;;;;;;;;5095876;28;20208;-77
2021/04/25 06:09:28;;;;;;;23.63;22.23;;;;;;;;;;5097579;28;20272;-79
2021/04/25 06:11:55;;;;;;;25.10;23.40;;;;;;;;;;5097516;28;20217;-76
2021/04/25 06:14:23;;;;;;;24.35;22.77;;;;;;;;;;5097441;28;20195;-76
2021/04/25 06:16:50;;;;;;;24.92;23.42;;;;;;;;;;5098132;28;20196;-77
2021/04/25 06:19:17;;;;;;;24.08;22.73;;;;;;;;;;5097349;28;20200;-77
2021/04/25 06:21:44;;;;;;;24.35;22.73;;;;;;;;;;5096704;28;20662;-78
2021/04/25 06:24:11;;;;;;;23.93;22.63;;;;;;;;;;5096891;28;20303;-78
2021/04/25 06:26:38;;;;;;;24.50;22.80;;;;;;;;;;5096738;28;20453;-77
2021/04/25 06:29:05;;;;;;;24.33;22.23;;;;;;;;;;5097143;28;20188;-77
2021/04/25 06:31:34;;;;;;;26.77;24.63;;;;;;;;;;5097161;28;20205;-77
2021/04/25 06:34:02;;;;;;;24.42;22.38;;;;;;;;;;5096779;28;20193;-77
2021/04/25 06:36:29;;;;;;;23.35;22.02;;;;;;;;;;5095833;28;20189;-77
2021/04/25 06:38:56;;;;;;;23.73;22.17;;;;;;;;;;5096593;28;20208;-77
2021/04/25 06:41:23;;;;;;;22.52;21.15;;;;;;;;;;5096962;28;20546;-77
2021/04/25 06:43:50;;;;;;;22.98;21.48;;;;;;;;;;5097142;28;20201;-77
2021/04/25 06:46:17;;;;;;;24.15;22.42;;;;;;;;;;5096341;28;20225;-76
2021/04/25 06:48:45;;;;;;;22.92;21.63;;;;;;;;;;5096541;28;20643;-76
2021/04/25 06:51:14;;;;;;;23.15;21.55;;;;;;;;;;5096349;28;20191;-77
2021/04/25 06:53:41;;;;;;;24.13;22.30;;;;;;;;;;5096859;28;20194;-90
2021/04/25 06:56:08;;;;;;;23.43;22.03;;;;;;;;;;5096001;28;20243;-87
2021/04/25 06:58:35;;;;;;;22.88;21.48;;;;;;;;;;5097289;28;20455;-88
2021/04/25 07:01:02;;;;;;;23.48;21.88;;;;;;;;;;5096414;28;20236;-87
2021/04/25 07:03:29;;;;;;;23.00;21.50;;;;;;;;;;5097215;28;20231;-88
2021/04/25 07:05:57;;;;;;;23.15;21.52;;;;;;;;;;5096781;28;20222;-86
2021/04/25 07:08:25;;;;;;;23.67;22.10;;;;;;;;;;5096795;28;20628;-86
2021/04/25 07:10:52;;;;;;;22.58;21.15;;;;;;;;;;5096866;28;20280;-85
2021/04/25 07:13:19;;;;;;;24.02;22.20;;;;;;;;;;5096610;28;20194;-87
2021/04/25 07:15:46;;;;;;;21.98;20.58;;;;;;;;;;5096573;28;20226;-86
2021/04/25 07:18:13;;;;;;;22.43;21.10;;;;;;;;;;5096454;28;20550;-86
2021/04/25 07:20:40;;;;;;;21.92;20.63;;;;;;;;;;5096549;28;20859;-87
2021/04/25 07:23:08;;;;;;;23.38;21.88;;;;;;;;;;5096334;28;20226;-87
2021/04/25 07:25:34;;;;;;;22.53;20.77;;;;;;;;;;5096723;28;20213;-88
2021/04/25 07:28:02;;;;;;;21.50;20.27;;;;;;;;;;5096700;28;20407;-88
2021/04/25 07:30:29;;;;;;;22.67;21.03;;;;;;;;;;5096627;28;20190;-88
2021/04/25 07:32:56;;;;;;;20.65;19.55;;;;;;;;;;5096254;28;20436;-89
2021/04/25 07:35:23;;;;;;;21.77;20.45;;;;;;;;;;5095493;28;20201;-88
2021/04/25 07:37:50;;;;;;;22.60;21.30;;;;;;;;;;5096092;28;20189;-88
2021/04/25 07:40:18;;;;;;;22.43;20.93;;;;;;;;;;5095108;28;20464;-86
2021/04/25 07:42:45;;;;;;;22.25;20.85;;;;;;;;;;5096126;28;20437;-86
2021/04/25 07:45:13;;;;;;;21.60;20.40;;;;;;;;;;5096249;28;20286;-87
2021/04/25 07:47:40;;;;;;;22.00;20.47;;;;;;;;;;5095927;28;20417;-87
2021/04/25 07:50:08;;;;;;;21.42;20.23;;;;;;;;;;5096032;28;20435;-87
2021/04/25 07:52:35;;;;;;;22.45;21.17;;;;;;;;;;5095396;28;20185;-88
2021/04/25 07:55:02;;;;;;;25.52;23.85;;;;;;;;;;5095619;28;20205;-87
2021/04/25 07:57:30;;;;;;;22.85;21.35;;;;;;;;;;5095800;28;20225;-87
2021/04/25 07:59:57;;;;;;;22.30;20.77;;;;;;;;;;5095876;28;20190;-87
2021/04/25 08:02:23;;;;;;;22.37;20.80;;;;;;;;;;5095664;28;20419;-86
2021/04/25 08:04:50;;;;;;;21.60;20.27;;;;;;;;;;5095863;28;20494;-85
2021/04/25 08:07:17;;;;;;;22.40;20.77;;;;;;;;;;5095793;28;20462;-85
2021/04/25 08:09:44;;;;;;;21.93;20.63;;;;;;;;;;5095357;28;20445;-85
2021/04/25 08:12:12;;;;;;;22.00;20.65;;;;;;;;;;5095289;28;20426;-80
2021/04/25 08:14:39;;;;;;;23.00;21.40;;;;;;;;;;5095186;28;20201;-87
2021/04/25 08:17:06;;;;;;;23.30;21.30;;;;;;;;;;5095711;28;20196;-87
2021/04/25 08:19:33;;;;;;;22.20;20.90;;;;;;;;;;5095275;28;20491;-87
2021/04/25 08:22:00;;;;;;;21.80;20.17;;;;;;;;;;5095569;28;20427;-87
2021/04/25 08:24:27;;;;;;;23.27;21.58;;;;;;;;;;5095090;28;20458;-87
2021/04/25 08:26:54;;;;;;;21.25;20.10;;;;;;;;;;5095520;28;20214;-87
2021/04/25 08:29:21;;;;;;;22.67;20.93;;;;;;;;;;5094947;28;20589;-88
2021/04/25 08:31:49;;;;;;;21.67;20.42;;;;;;;;;;5094277;28;20449;-87
2021/04/25 08:34:16;;;;;;;23.17;21.57;;;;;;;;;;5095125;28;20194;-87
2021/04/25 08:36:43;;;;;;;22.17;20.70;;;;;;;;;;5094618;28;20444;-87
2021/04/25 08:39:10;;;;;;;21.97;20.60;;;;;;;;;;5095095;28;20190;-87
2021/04/25 08:41:36;;;;;;;22.60;20.90;;;;;;;;;;5095349;28;20440;-87
2021/04/25 08:44:04;;;;;;;21.52;20.40;;;;;;;;;;5094902;28;20490;-87
2021/04/25 08:46:31;;;;;;;22.35;20.80;;;;;;;;;;5095058;28;20214;-86
2021/04/25 08:48:58;;;;;;;20.97;19.77;;;;;;;;;;5094930;28;20238;-87
2021/04/25 08:51:25;;;;;;;22.48;21.15;;;;;;;;;;5095577;28;20441;-87
2021/04/25 08:53:52;;;;;;;22.20;20.90;;;;;;;;;;5093909;28;20206;-88
2021/04/25 08:56:20;;;;;;;21.00;19.80;;;;;;;;;;5093752;28;20674;-88
2021/04/25 08:58:48;;;;;;;22.20;20.80;;;;;;;;;;5095170;28;20437;-88
2021/04/25 09:01:14;;;;;;;22.47;21.07;;;;;;;;;;5094850;28;20436;-87
2021/04/25 09:03:44;;;;;;;22.90;21.50;;;;;;;;;;5094682;28;20412;-87
2021/04/25 09:06:12;;;;;;;23.67;21.60;;;;;;;;;;5095345;28;20486;-88
2021/04/25 09:08:46;;;;;;;21.97;20.57;;;;;;;;;;5093591;28;20441;-87
2021/04/25 09:11:26;;;;;;;22.27;20.73;;;;;;;;;;5094943;28;20440;-87
2021/04/25 09:14:11;;;;;;;21.67;20.47;;;;;;;;;;5094874;28;20451;-88
2021/04/25 09:16:38;;;;;;;23.57;21.90;;;;;;;;;;5094568;28;20429;-88
2021/04/25 09:19:05;;;;;;;22.30;20.90;;;;;;;;;;5094788;28;20435;-87
2021/04/25 09:21:33;;;;;;;22.07;20.73;;;;;;;;;;5094468;28;20456;-88
2021/04/25 09:24:20;;;;;;;22.27;20.80;;;;;;;;;;5094228;28;20456;-87
2021/04/25 09:26:47;;;;;;;22.27;20.90;;;;;;;;;;5094500;28;20858;-87
2021/04/25 09:29:14;;;;;;;22.33;20.93;;;;;;;;;;5093605;28;20444;-87
2021/04/25 09:31:41;;;;;;;21.60;20.20;;;;;;;;;;5094525;28;20844;-87
2021/04/25 09:34:08;;;;;;;21.53;20.13;;;;;;;;;;5094579;28;20783;-87
2021/04/25 09:36:38;;;;;;;22.83;21.23;;;;;;;;;;5094507;28;20407;-87
2021/04/25 09:39:12;;;;;;;23.17;21.60;;;;;;;;;;5094686;28;20897;-87
2021/04/25 09:41:39;;;;;;;24.03;22.27;;;;;;;;;;5098052;28;20474;-88
2021/04/25 09:44:07;;;;;;;23.00;21.30;;;;;;;;;;5098612;28;20444;-88
2021/04/25 09:46:51;;;;;;;22.50;21.20;;;;;;;;;;5098625;28;20516;-87
2021/04/25 09:49:33;;;;;;;22.23;20.83;;;;;;;;;;5098696;28;20767;-88
2021/04/25 09:52:01;;;;;;;24.67;22.60;;;;;;;;;;5098521;28;20423;-85
2021/04/25 09:54:28;;;;;;;23.67;21.93;;;;;;;;;;5097868;28;20440;-82
2021/04/25 09:56:55;;;;;;;23.20;21.80;;;;;;;;;;5098021;28;20475;-85
2021/04/25 09:59:22;;;;;;;24.00;22.30;;;;;;;;;;5096975;28;20456;-85
2021/04/25 10:01:49;;;;;;;24.47;22.63;;;;;;;;;;5098019;28;20436;-83
2021/04/25 10:04:34;;;;;;;23.50;22.00;;;;;;;;;;5098071;28;20821;-83
2021/04/25 10:07:03;;;;;;;23.43;21.50;;;;;;;;;;5097531;28;20483;-83
2021/04/25 10:09:30;;;;;;;23.43;21.60;;;;;;;;;;5096691;28;20459;-80
2021/04/25 10:11:59;;;;;;;23.30;21.80;;;;;;;;;;5097505;28;20475;-83
2021/04/25 10:14:26;;;;;;;23.90;22.00;;;;;;;;;;5097732;28;20473;-83
2021/04/25 10:16:54;;;;;;;25.13;22.90;;;;;;;;;;5097590;28;20520;-83
2021/04/25 10:19:21;;;;;;;25.20;23.10;;;;;;;;;;5096720;28;20419;-83
2021/04/25 10:21:48;;;;;;;23.33;21.50;;;;;;;;;;5097989;28;20786;-83
2021/04/25 10:24:19;;;;;;;23.10;21.60;;;;;;;;;;5097471;28;20477;-84
2021/04/25 10:27:00;;;;;;;22.70;21.30;;;;;;;;;;5096642;28;20459;-83
2021/04/25 10:29:30;;;;;;;23.27;21.60;;;;;;;;;;5097428;28;20464;-82
2021/04/25 10:31:58;;;;;;;23.90;22.27;;;;;;;;;;5097579;28;20506;-84
2021/04/25 10:34:25;;;;;;;23.47;21.80;;;;;;;;;;5097617;28;20909;-83
2021/04/25 10:37:11;;;;;;;23.30;21.70;;;;;;;;;;5097215;27;20435;-83
2021/04/25 10:39:40;;;;;;;24.50;23.00;;;;;;;;;;5097312;28;20428;-83
2021/04/25 10:42:26;;;;;;;22.57;21.17;;;;;;;;;;5095869;28;20531;-82
2021/04/25 10:45:16;;;;;;;23.10;21.60;;;;;;;;;;5097312;28;20789;-82
2021/04/25 10:47:44;;;;;;;24.10;21.93;;;;;;;;;;5097285;28;20433;-81
2021/04/25 10:50:29;;;;;;;22.50;21.10;;;;;;;;;;5096955;28;20412;-82
2021/04/25 10:53:16;;;;;;;22.90;21.13;;;;;;;;;;5095062;28;20437;-82
2021/04/25 10:55:46;;;;;;;23.57;22.07;;;;;;;;;;5096713;28;20452;-82
2021/04/25 10:58:20;;;;;;;23.80;22.17;;;;;;;;;;5096169;28;20469;-82
2021/04/25 11:00:47;;;;;;;23.17;21.47;;;;;;;;;;5096457;28;20898;-81
2021/04/25 11:03:15;;;;;;;22.83;21.43;;;;;;;;;;5096462;28;20432;-82
2021/04/25 11:05:43;;;;;;;23.67;22.07;;;;;;;;;;5096322;28;20484;-83
2021/04/25 11:08:25;;;;;;;23.03;21.63;;;;;;;;;;5096937;28;20447;-83
2021/04/25 11:10:54;;;;;;;23.03;21.57;;;;;;;;;;5096212;28;20511;-85
2021/04/25 11:13:36;;;;;;;23.10;21.60;;;;;;;;;;5096281;28;20412;-83
2021/04/25 11:16:04;;;;;;;22.70;21.30;;;;;;;;;;5094019;28;20449;-82
2021/04/25 11:18:48;;;;;;;23.37;21.67;;;;;;;;;;5096364;28;20437;-83
2021/04/25 11:21:49;;;;;;;23.83;22.03;;;;;;;;;;5096223;28;20979;-83
2021/04/25 11:24:30;;;;;;;22.83;21.23;;;;;;;;;;5096356;28;20483;-82
2021/04/25 11:26:59;;;;;;;23.90;22.20;;;;;;;;;;5096342;28;20458;-84
2021/04/25 11:29:41;;;;;;;24.37;22.70;;;;;;;;;;5097074;28;20548;-84
2021/04/25 11:32:08;;;;;;;23.47;21.53;;;;;;;;;;5094457;28;20428;-84
2021/04/25 11:34:53;;;;;;;22.80;21.40;;;;;;;;;;5096436;28;20433;-84
2021/04/25 11:37:22;;;;;;;22.80;21.40;;;;;;;;;;5096269;28;20436;-84
2021/04/25 11:39:51;;;;;;;25.00;23.20;;;;;;;;;;5096289;28;20433;-84
2021/04/25 11:42:25;;;;;;;23.17;21.60;;;;;;;;;;5096379;28;20437;-85
2021/04/25 11:44:52;;;;;;;23.90;22.23;;;;;;;;;;5096206;28;20437;-84
2021/04/25 11:47:20;;;;;;;24.17;22.07;;;;;;;;;;5095909;28;20444;-84
2021/04/25 11:49:48;;;;;;;24.17;22.23;;;;;;;;;;5096162;28;20440;-85
2021/04/25 11:52:16;;;;;;;24.27;22.53;;;;;;;;;;5096045;28;20812;-83
2021/04/25 11:54:43;;;;;;;25.10;23.03;;;;;;;;;;5094475;28;20440;-85
2021/04/25 11:57:10;;;;;;;24.10;22.40;;;;;;;;;;5095433;28;21035;-85
2021/04/25 11:59:38;;;;;;;23.10;21.50;;;;;;;;;;5096386;28;20900;-84
2021/04/25 12:02:09;;;;;;;23.60;21.73;;;;;;;;;;5095448;28;20481;-85
2021/04/25 12:04:45;;;;;;;23.30;21.80;;;;;;;;;;5094492;28;20523;-85
2021/04/25 12:07:12;;;;;;;23.53;21.83;;;;;;;;;;5095644;28;20483;-84
2021/04/25 12:09:40;;;;;;;23.10;21.70;;;;;;;;;;5095880;28;20892;-85
2021/04/25 12:12:07;;;;;;;22.80;21.30;;;;;;;;;;5095314;28;20411;-85
2021/04/25 12:14:34;;;;;;;23.37;21.67;;;;;;;;;;5095195;28;20449;-84
2021/04/25 12:17:12;;;;;;;23.53;21.83;;;;;;;;;;5095357;28;20444;-85
2021/04/25 12:19:39;;;;;;;22.07;20.57;;;;;;;;;;5095174;28;20479;-84
2021/04/25 12:22:06;;;;;;;21.63;20.13;;;;;;;;;;5094306;28;20434;-84
2021/04/25 12:24:34;;;;;;;22.20;20.60;;;;;;;;;;5094979;28;20497;-85
2021/04/25 12:27:00;;;;;;;22.40;20.90;;;;;;;;;;5095031;28;20480;-85
2021/04/25 12:29:34;;;;;;;23.47;21.70;;;;;;;;;;5095300;28;20433;-84
2021/04/25 12:32:01;;;;;;;22.73;21.37;;;;;;;;;;5095300;28;20448;-85
2021/04/25 12:34:31;;;;;;;21.47;20.27;;;;;;;;;;5095165;28;20453;-85
2021/04/25 12:36:59;;;;;;;21.97;20.67;;;;;;;;;;5095004;28;20448;-86
2021/04/25 12:39:39;;;;;;;21.43;20.03;;;;;;;;;;5095288;28;20447;-86
2021/04/25 12:42:06;;;;;;;22.37;21.00;;;;;;;;;;5095154;28;20442;-86
2021/04/25 12:44:35;;;;;;;22.27;20.97;;;;;;;;;;5095042;28;20419;-85
2021/04/25 12:47:02;;;;;;;22.23;20.90;;;;;;;;;;5094083;28;20481;-84
2021/04/25 12:49:37;;;;;;;23.30;21.90;;;;;;;;;;5094746;28;20412;-86
2021/04/25 12:52:05;;;;;;;23.53;22.03;;;;;;;;;;5094021;28;20418;-85
2021/04/25 12:54:39;;;;;;;22.40;21.00;;;;;;;;;;5095332;28;20461;-87
2021/04/25 12:57:06;;;;;;;23.70;22.20;;;;;;;;;;5094941;28;20472;-85
2021/04/25 12:59:34;;;;;;;24.03;22.53;;;;;;;;;;5094958;28;20750;-85
2021/04/25 13:02:12;;;;;;;24.37;22.77;;;;;;;;;;5094880;28;20862;-86
2021/04/25 13:04:44;;;;;;;23.30;21.80;;;;;;;;;;5094286;28;20482;-87
2021/04/25 13:07:22;;;;;;;23.77;22.33;;;;;;;;;;5094465;28;20480;-87
2021/04/25 13:10:04;;;;;;;23.43;22.00;;;;;;;;;;5095258;28;20859;-87
2021/04/25 13:12:31;;;;;;;23.20;21.80;;;;;;;;;;5094744;28;20523;-87
2021/04/25 13:15:00;;;;;;;24.00;22.40;;;;;;;;;;5094304;28;20433;-88
2021/04/25 13:17:28;;;;;;;24.33;22.53;;;;;;;;;;5094464;28;20420;-87
2021/04/25 13:19:56;;;;;;;23.47;22.13;;;;;;;;;;5094339;28;20436;-87
2021/04/25 13:22:23;;;;;;;23.20;21.60;;;;;;;;;;5093486;28;20444;-88
2021/04/25 13:24:50;;;;;;;24.67;22.97;;;;;;;;;;5093033;28;20491;-88
2021/04/25 13:27:18;;;;;;;23.30;21.87;;;;;;;;;;5093750;28;20476;-86
2021/04/25 13:29:47;;;;;;;25.23;23.63;;;;;;;;;;5094387;28;20507;-86
2021/04/25 13:32:14;;;;;;;22.93;21.53;;;;;;;;;;5094520;28;20460;-86
2021/04/25 13:34:41;;;;;;;24.17;22.37;;;;;;;;;;5093231;28;20419;-87
2021/04/25 13:37:09;;;;;;;23.03;21.47;;;;;;;;;;5094514;28;20415;-86
2021/04/25 13:39:36;;;;;;;26.10;24.00;;;;;;;;;;5094372;28;20449;-86
2021/04/25 13:42:05;;;;;;;23.80;22.30;;;;;;;;;;5094366;28;20809;-87
2021/04/25 13:44:32;;;;;;;22.93;21.37;;;;;;;;;;5092938;28;20925;-87
2021/04/25 13:46:59;;;;;;;23.10;21.70;;;;;;;;;;5094343;28;20459;-87
2021/04/25 13:49:26;;;;;;;23.77;22.27;;;;;;;;;;5094216;28;20430;-86
2021/04/25 13:51:53;;;;;;;22.80;21.30;;;;;;;;;;5094565;28;20460;-87
2021/04/25 13:54:21;;;;;;;22.83;21.40;;;;;;;;;;5094412;28;20455;-87
2021/04/25 13:56:48;;;;;;;23.30;21.83;;;;;;;;;;5094215;28;20468;-87
2021/04/25 13:59:15;;;;;;;23.60;21.97;;;;;;;;;;5094593;28;20426;-87
2021/04/25 14:01:41;;;;;;;23.77;21.90;;;;;;;;;;5094134;28;20910;-87
2021/04/25 14:04:08;;;;;;;22.60;21.10;;;;;;;;;;5093897;28;20436;-86
2021/04/25 14:06:36;;;;;;;22.33;20.70;;;;;;;;;;5094078;28;20580;-86
2021/04/25 14:09:05;;;;;;;23.00;21.10;;;;;;;;;;5094208;28;20419;-86
2021/04/25 14:11:33;;;;;;;24.63;22.40;;;;;;;;;;5094271;28;20441;-86
2021/04/25 14:14:00;;;;;;;22.93;21.63;;;;;;;;;;5094218;28;20433;-87
2021/04/25 14:16:28;;;;;;;22.47;21.13;;;;;;;;;;5094131;28;20433;-86
2021/04/25 14:18:55;;;;;;;23.00;21.60;;;;;;;;;;5094098;28;20434;-86
2021/04/25 14:21:22;;;;;;;22.73;21.23;;;;;;;;;;5094134;28;20464;-86
2021/04/25 14:23:49;;;;;;;22.47;21.03;;;;;;;;;;5093854;28;20481;-87